Time;durP1;ratioP1;P1;durP2;ratioP2;P2;SDS_P1;SDS_P2;PMS_P1;PMS_P2;Temp;Humidity;BMP_temperature;BMP_pressure;BME280_temperature;BME280_humidity;BME280_pressure;Samples;Min_cycle;Max_cycle;Signal;HPM_P1;HPM_P2
2022/05/19 00:01:01;;;;;;;;;;;;;;;;;;5012643;28;19961;-78
2022/05/19 00:03:27;;;;;;;;;;;;;;;;;;4995525;28;19972;-77
2022/05/19 00:05:53;;;;;;;;;;;;;;;;;;5013141;28;19921;-76
2022/05/19 00:08:18;;;;;;;;;;;;;;;;;;5013162;28;20428;-76
2022/05/19 00:10:44;;;;;;;;;;;;;;;;;;4995356;28;19921;-80
2022/05/19 00:13:09;;;;;;;;;;;;;;;;;;5014131;28;19918;-79
2022/05/19 00:15:35;;;;;;;;;;;;;;;;;;5017195;28;19917;-77
2022/05/19 00:18:00;;;;;;;;;;;;;;;;;;5016753;28;19917;-79
2022/05/19 00:20:25;;;;;;;;;;;;;;;;;;5016695;28;19917;-78
2022/05/19 00:22:51;;;;;;;;;;;;;;;;;;5016633;28;19921;-80
2022/05/19 00:25:16;;;;;;;;;;;;;;;;;;5017002;28;19967;-77
2022/05/19 00:27:42;;;;;;;;;;;;;;;;;;5017240;28;19979;-77
2022/05/19 00:30:08;;;;;;;;;;;;;;;;;;5016757;28;19917;-77
2022/05/19 00:32:33;;;;;;;;;;;;;;;;;;5016963;28;19924;-77
2022/05/19 00:34:58;;;;;;;;;;;;;;;;;;4999076;28;19921;-78
2022/05/19 00:37:24;;;;;;;;;;;;;;;;;;5016344;28;19980;-79
2022/05/19 00:39:50;;;;;;;;;;;;;;;;;;5016605;28;19913;-79
2022/05/19 00:45:01;;;;;;;;;;;;;;;;;;5016921;28;20285;-78
2022/05/19 00:47:29;;;;;;;;;;;;;;;;;;5016637;28;19914;-79
2022/05/19 00:49:54;;;;;;;;;;;;;;;;;;5016448;28;19922;-80
2022/05/19 00:52:39;;;;;;;;;;;;;;;;;;5016429;28;19917;-76
2022/05/19 00:55:07;;;;;;;;;;;;;;;;;;5016503;28;20390;-78
2022/05/19 00:57:35;;;;;;;;;;;;;;;;;;5016092;28;20297;-78
2022/05/19 01:00:05;;;;;;;;;;;;;;;;;;5016194;28;19917;-78
2022/05/19 01:02:34;;;;;;;;;;;;;;;;;;4998107;28;19976;-77
2022/05/19 01:05:08;;;;;;;;;;;;;;;;;;5016212;28;20011;-79
2022/05/19 01:07:46;;;;;;;;;;;;;;;;;;5016104;28;19921;-80
2022/05/19 01:10:11;;;;;;;;;;;;;;;;;;4997884;28;19926;-81
2022/05/19 01:12:38;;;;;;;;;;;;;;;;;;5016000;28;19917;-79
2022/05/19 01:15:03;;;;;;;;;;;;;;;;;;5015283;28;19917;-81
2022/05/19 01:17:29;;;;;;;;;;;;;;;;;;4997248;28;20377;-80
2022/05/19 01:20:00;;;;;;;;;;;;;;;;;;5015706;28;19925;-78
2022/05/19 01:22:26;;;;;;;;;;;;;;;;;;5015197;28;19928;-76
2022/05/19 01:25:01;;;;;;;;;;;;;;;;;;5014508;28;19917;-77
2022/05/19 01:27:26;;;;;;;;;;;;;;;;;;4996512;28;20377;-79
2022/05/19 01:29:54;;;;;;;;;;;;;;;;;;5015673;28;19921;-79
2022/05/19 01:32:29;;;;;;;;;;;;;;;;;;5015755;28;19988;-79
2022/05/19 01:34:55;;;;;;;;;;;;;;;;;;4996616;28;19961;-80
2022/05/19 01:37:21;;;;;;;;;;;;;;;;;;4995896;28;19918;-78
2022/05/19 01:39:58;;;;;;;;;;;;;;;;;;4962323;28;19922;-77
2022/05/19 01:42:36;;;;;;;;;;;;;;;;;;4977654;28;19922;-81
2022/05/19 01:45:16;;;;;;;;;;;;;;;;;;4996190;28;20334;-77
2022/05/19 01:47:41;;;;;;;;;;;;;;;;;;4995943;28;19918;-76
2022/05/19 01:50:16;;;;;;;;;;;;;;;;;;5010274;28;19928;-78
2022/05/19 01:52:53;;;;;;;;;;;;;;;;;;5015310;28;19936;-77
2022/05/19 01:55:24;;;;;;;;;;;;;;;;;;5015370;28;19969;-79
2022/05/19 01:57:53;;;;;;;;;;;;;;;;;;4997452;28;19917;-79
2022/05/19 02:00:20;;;;;;;;;;;;;;;;;;5015107;28;19925;-78
2022/05/19 02:02:54;;;;;;;;;;;;;;;;;;5014593;28;20397;-77
2022/05/19 02:05:20;;;;;;;;;;;;;;;;;;5015093;28;20369;-81
2022/05/19 02:07:48;;;;;;;;;;;;;;;;;;4997467;28;19924;-77
2022/05/19 02:10:16;;;;;;;;;;;;;;;;;;4991055;28;19922;-76
2022/05/19 02:12:42;;;;;;;;;;;;;;;;;;4995391;28;19922;-76
2022/05/19 02:15:08;;;;;;;;;;;;;;;;;;4977911;28;20024;-77
2022/05/19 02:17:34;;;;;;;;;;;;;;;;;;4995306;28;19922;-77
2022/05/19 02:20:04;;;;;;;;;;;;;;;;;;4995074;28;19944;-79
2022/05/19 02:22:33;;;;;;;;;;;;;;;;;;4994855;28;19929;-80
2022/05/19 02:25:06;;;;;;;;;;;;;;;;;;4978128;28;20297;-78
2022/05/19 02:27:35;;;;;;;;;;;;;;;;;;4995150;28;19972;-79
2022/05/19 02:30:02;;;;;;;;;;;;;;;;;;4995087;28;19973;-79
2022/05/19 02:32:27;;;;;;;;;;;;;;;;;;4995060;28;19918;-79
2022/05/19 02:34:53;;;;;;;;;;;;;;;;;;4994977;28;19925;-76
2022/05/19 02:37:18;;;;;;;;;;;;;;;;;;4994447;28;19918;-78
2022/05/19 02:39:44;;;;;;;;;;;;;;;;;;5010602;28;19918;-76
2022/05/19 02:42:09;;;;;;;;;;;;;;;;;;4996019;28;20428;-80
2022/05/19 02:44:35;;;;;;;;;;;;;;;;;;5014298;28;19921;-79
2022/05/19 02:47:00;;;;;;;;;;;;;;;;;;5014313;28;19924;-79
2022/05/19 02:49:25;;;;;;;;;;;;;;;;;;4996753;28;19921;-78
2022/05/19 02:51:51;;;;;;;;;;;;;;;;;;5014189;28;19971;-79
2022/05/19 02:54:20;;;;;;;;;;;;;;;;;;4996705;28;19964;-79
2022/05/19 02:56:46;;;;;;;;;;;;;;;;;;4996480;28;19917;-76
2022/05/19 02:59:11;;;;;;;;;;;;;;;;;;5013513;28;20400;-79
2022/05/19 03:01:37;;;;;;;;;;;;;;;;;;5010688;28;19932;-76
2022/05/19 03:04:02;;;;;;;;;;;;;;;;;;5013591;28;19928;-77
2022/05/19 03:06:28;;;;;;;;;;;;;;;;;;5009816;28;19922;-81
2022/05/19 03:08:53;;;;;;;;;;;;;;;;;;5011695;28;19928;-77
2022/05/19 03:11:19;;;;;;;;;;;;;;;;;;4996210;28;19917;-78
2022/05/19 03:13:44;;;;;;;;;;;;;;;;;;4986086;28;19969;-79
2022/05/19 03:16:10;;;;;;;;;;;;;;;;;;5003432;28;19925;-81
2022/05/19 03:18:35;;;;;;;;;;;;;;;;;;4985407;28;19917;-78
2022/05/19 03:21:00;;;;;;;;;;;;;;;;;;5003294;28;19922;-81
2022/05/19 03:23:26;;;;;;;;;;;;;;;;;;4986429;28;20009;-79
2022/05/19 03:25:53;;;;;;;;;;;;;;;;;;5003001;28;19960;-82
2022/05/19 03:28:21;;;;;;;;;;;;;;;;;;4986882;28;19947;-85
2022/05/19 03:30:46;;;;;;;;;;;;;;;;;;5003044;28;20279;-81
2022/05/19 03:33:12;;;;;;;;;;;;;;;;;;5002700;28;19964;-84
2022/05/19 03:35:37;;;;;;;;;;;;;;;;;;5004763;28;19925;-78
2022/05/19 03:38:03;;;;;;;;;;;;;;;;;;5008093;28;20290;-75
2022/05/19 03:40:28;;;;;;;;;;;;;;;;;;4990103;28;20270;-78
2022/05/19 03:42:54;;;;;;;;;;;;;;;;;;4995248;28;19926;-79
2022/05/19 03:45:19;;;;;;;;;;;;;;;;;;5013386;28;19928;-75
2022/05/19 03:47:45;;;;;;;;;;;;;;;;;;4994029;28;19932;-78
2022/05/19 03:50:10;;;;;;;;;;;;;;;;;;5010788;28;20024;-77
2022/05/19 03:52:37;;;;;;;;;;;;;;;;;;5013168;28;20350;-77
2022/05/19 03:55:02;;;;;;;;;;;;;;;;;;5013249;28;19988;-76
2022/05/19 03:57:27;;;;;;;;;;;;;;;;;;5013230;28;20004;-76
2022/05/19 03:59:53;;;;;;;;;;;;;;;;;;5012936;28;20282;-77
2022/05/19 04:02:18;;;;;;;;;;;;;;;;;;5013198;28;20258;-75
2022/05/19 04:04:44;;;;;;;;;;;;;;;;;;5012680;28;19921;-76
2022/05/19 04:07:10;;;;;;;;;;;;;;;;;;4995690;28;19917;-75
2022/05/19 04:09:35;;;;;;;;;;;;;;;;;;5010172;28;19922;-78
2022/05/19 04:12:01;;;;;;;;;;;;;;;;;;5013012;28;20005;-76
2022/05/19 04:14:27;;;;;;;;;;;;;;;;;;5013039;28;20004;-76
2022/05/19 04:16:53;;;;;;;;;;;;;;;;;;5012737;28;19926;-77
2022/05/19 04:19:19;;;;;;;;;;;;;;;;;;5012784;28;20400;-78
2022/05/19 04:21:44;;;;;;;;;;;;;;;;;;4993436;28;19968;-75
2022/05/19 04:24:10;;;;;;;;;;;;;;;;;;4992786;28;19918;-75
2022/05/19 04:26:36;;;;;;;;;;;;;;;;;;4991651;28;19918;-77
2022/05/19 04:29:01;;;;;;;;;;;;;;;;;;4992492;28;19918;-75
2022/05/19 04:31:26;;;;;;;;;;;;;;;;;;4993271;28;19917;-75
2022/05/19 04:33:52;;;;;;;;;;;;;;;;;;4975769;28;19949;-76
2022/05/19 04:36:17;;;;;;;;;;;;;;;;;;4993196;28;20017;-79
2022/05/19 04:38:43;;;;;;;;;;;;;;;;;;4993043;28;19918;-80
2022/05/19 04:41:08;;;;;;;;;;;;;;;;;;4975642;28;19922;-76
2022/05/19 04:43:33;;;;;;;;;;;;;;;;;;4992756;28;19932;-75
2022/05/19 04:45:59;;;;;;;;;;;;;;;;;;4993176;28;19922;-75
2022/05/19 04:48:25;;;;;;;;;;;;;;;;;;4993073;28;20385;-75
2022/05/19 04:50:51;;;;;;;;;;;;;;;;;;4993396;28;19918;-78
2022/05/19 04:53:17;;;;;;;;;;;;;;;;;;4993166;28;19964;-76
2022/05/19 04:55:42;;;;;;;;;;;;;;;;;;4993202;28;19965;-78
2022/05/19 04:58:08;;;;;;;;;;;;;;;;;;4975522;28;19918;-77
2022/05/19 05:00:34;;;;;;;;;;;;;;;;;;4978259;28;20443;-75
2022/05/19 05:02:59;;;;;;;;;;;;;;;;;;4979115;28;20415;-76
2022/05/19 05:05:25;;;;;;;;;;;;;;;;;;4996392;28;19998;-75
2022/05/19 05:07:50;;;;;;;;;;;;;;;;;;4992036;28;19925;-76
2022/05/19 05:10:15;;;;;;;;;;;;;;;;;;5011665;28;19921;-78
2022/05/19 05:12:41;;;;;;;;;;;;;;;;;;5014441;28;19929;-78
2022/05/19 05:15:07;;;;;;;;;;;;;;;;;;4996521;28;19918;-81
2022/05/19 05:17:33;;;;;;;;;;;;;;;;;;4996493;28;19918;-76
2022/05/19 05:19:58;;;;;;;;;;;;;;;;;;4996120;28;19964;-79
2022/05/19 05:22:26;;;;;;;;;;;;;;;;;;4998215;28;20560;-80
2022/05/19 05:24:51;;;;;;;;;;;;;;;;;;5009799;28;20378;-78
2022/05/19 05:27:17;;;;;;;;;;;;;;;;;;5015813;28;19921;-77
2022/05/19 05:29:42;;;;;;;;;;;;;;;;;;5016055;28;19940;-78
2022/05/19 05:32:08;;;;;;;;;;;;;;;;;;5000929;28;20377;-75
2022/05/19 05:34:34;;;;;;;;;;;;;;;;;;4996049;28;19918;-77
2022/05/19 05:37:00;;;;;;;;;;;;;;;;;;4996133;28;19918;-77
2022/05/19 05:39:25;;;;;;;;;;;;;;;;;;4995900;28;19929;-76
2022/05/19 05:41:51;;;;;;;;;;;;;;;;;;4995613;28;19922;-76
2022/05/19 05:44:16;;;;;;;;;;;;;;;;;;4995388;28;19922;-77
2022/05/19 05:46:42;;;;;;;;;;;;;;;;;;4995834;28;19980;-76
2022/05/19 05:49:08;;;;;;;;;;;;;;;;;;4995852;28;20008;-77
2022/05/19 05:51:33;;;;;;;;;;;;;;;;;;4995960;28;19928;-78
2022/05/19 05:53:58;;;;;;;;;;;;;;;;;;4978270;28;19989;-80
2022/05/19 05:56:24;;;;;;;;;;;;;;;;;;4995698;28;19922;-83
2022/05/19 05:58:49;;;;;;;;;;;;;;;;;;4995680;28;19925;-77
2022/05/19 06:01:16;;;;;;;;;;;;;;;;;;4994873;28;19922;-77
2022/05/19 06:03:43;;;;;;;;;;;;;;;;;;4993974;28;19925;-78
2022/05/19 06:06:08;;;;;;;;;;;;;;;;;;4995447;28;19914;-79
2022/05/19 06:08:34;;;;;;;;;;;;;;;;;;4995030;28;19976;-78
2022/05/19 06:11:00;;;;;;;;;;;;;;;;;;4994644;28;19925;-76
2022/05/19 06:13:26;;;;;;;;;;;;;;;;;;4995155;28;19926;-77
2022/05/19 06:15:51;;;;;;;;;;;;;;;;;;4995253;28;20366;-76
2022/05/19 06:18:17;;;;;;;;;;;;;;;;;;4995410;28;19918;-76
2022/05/19 06:20:42;;;;;;;;;;;;;;;;;;4994601;28;19965;-78
2022/05/19 06:23:08;;;;;;;;;;;;;;;;;;4995011;28;19925;-77
2022/05/19 06:25:34;;;;;;;;;;;;;;;;;;4994528;28;19920;-76
2022/05/19 06:28:00;;;;;;;;;;;;;;;;;;4994822;28;19918;-77
2022/05/19 06:30:26;;;;;;;;;;;;;;;;;;4977495;28;20433;-79
2022/05/19 06:32:52;;;;;;;;;;;;;;;;;;4994724;28;19929;-77
2022/05/19 06:35:21;;;;;;;;;;;;;;;;;;4994935;28;19918;-80
2022/05/19 06:37:47;;;;;;;;;;;;;;;;;;4995047;28;19940;-77
2022/05/19 06:40:15;;;;;;;;;;;;;;;;;;4976802;28;20422;-78
2022/05/19 06:42:40;;;;;;;;;;;;;;;;;;4994471;28;19922;-78
2022/05/19 06:45:06;;;;;;;;;;;;;;;;;;4994306;28;20417;-75
2022/05/19 06:47:31;;;;;;;;;;;;;;;;;;4994533;28;20013;-76
2022/05/19 06:49:57;;;;;;;;;;;;;;;;;;4994351;28;19917;-77
2022/05/19 06:52:28;;;;;;;;;;;;;;;;;;4994410;28;19971;-76
2022/05/19 06:54:54;;;;;;;;;;;;;;;;;;4995362;28;20385;-83
2022/05/19 06:57:20;;;;;;;;;;;;;;;;;;5010388;28;19968;-80
2022/05/19 06:59:47;;;;;;;;;;;;;;;;;;5008104;28;20377;-78
2022/05/19 07:02:12;;;;;;;;;;;;;;;;;;5013013;28;20023;-80
2022/05/19 07:04:38;;;;;;;;;;;;;;;;;;5012186;28;20073;-83
2022/05/19 07:07:07;;;;;;;;;;;;;;;;;;5013932;28;19922;-79
2022/05/19 07:09:33;;;;;;;;;;;;;;;;;;4995983;28;19918;-77
2022/05/19 07:12:00;;;;;;;;;;;;;;;;;;5013589;28;19924;-83
2022/05/19 07:14:25;;;;;;;;;;;;;;;;;;5013640;28;19922;-84
2022/05/19 07:16:50;;;;;;;;;;;;;;;;;;4996062;28;20294;-79
2022/05/19 07:22:00;;;;;;;;;;;;;;;;;;5013168;28;19944;-79
2022/05/19 07:24:25;;;;;;;;;;;;;;;;;;5006749;28;19922;-77
2022/05/19 07:26:52;;;;;;;;;;;;;;;;;;4999156;28;19918;-77
2022/05/19 07:29:18;;;;;;;;;;;;;;;;;;5013235;28;19921;-78
2022/05/19 07:31:43;;;;;;;;;;;;;;;;;;5013403;28;20332;-77
2022/05/19 07:34:10;;;;;;;;;;;;;;;;;;5013427;28;19918;-77
2022/05/19 07:36:36;;;;;;;;;;;;;;;;;;5013248;28;20373;-78
2022/05/19 07:39:02;;;;;;;;;;;;;;;;;;5007999;28;19933;-77
2022/05/19 07:41:28;;;;;;;;;;;;;;;;;;5008339;28;20411;-80
2022/05/19 07:43:54;;;;;;;;;;;;;;;;;;5009957;28;19918;-80
2022/05/19 07:46:19;;;;;;;;;;;;;;;;;;4993047;28;20286;-80
2022/05/19 07:48:45;;;;;;;;;;;;;;;;;;4993454;28;19929;-80
2022/05/19 07:51:10;;;;;;;;;;;;;;;;;;4995981;28;19926;-80
2022/05/19 07:53:36;;;;;;;;;;;;;;;;;;4985865;28;19917;-78
2022/05/19 07:56:02;;;;;;;;;;;;;;;;;;5012972;28;19917;-80
2022/05/19 07:58:29;;;;;;;;;;;;;;;;;;5011956;28;19928;-78
2022/05/19 08:00:54;;;;;;;;;;;;;;;;;;5012731;28;19921;-77
2022/05/19 08:03:22;;;;;;;;;;;;;;;;;;5013306;28;20258;-80
2022/05/19 08:05:48;;;;;;;;;;;;;;;;;;4994826;28;20391;-82
2022/05/19 08:08:13;;;;;;;;;;;;;;;;;;5012865;28;19917;-78
2022/05/19 08:10:39;;;;;;;;;;;;;;;;;;5012825;28;20316;-76
2022/05/19 08:15:48;;;;;;;;;;;;;;;;;;5013089;28;19929;-79
2022/05/19 08:18:18;;;;;;;;;;;;;;;;;;5012726;28;19917;-76
2022/05/19 08:20:45;;;;;;;;;;;;;;;;;;5007871;28;19921;-79
2022/05/19 08:23:13;;;;;;;;;;;;;;;;;;4993035;28;19917;-77
2022/05/19 08:25:39;;;;;;;;;;;;;;;;;;4992654;28;19918;-75
2022/05/19 08:28:05;;;;;;;;;;;;;;;;;;4993039;28;20340;-77
2022/05/19 08:30:31;;;;;;;;;;;;;;;;;;4976168;28;20004;-80
2022/05/19 08:32:56;;;;;;;;;;;;;;;;;;4993086;28;19921;-86
2022/05/19 08:35:22;;;;;;;;;;;;;;;;;;4995978;28;19918;-85
2022/05/19 08:37:48;;;;;;;;;;;;;;;;;;4996992;28;19918;-80
2022/05/19 08:40:13;;;;;;;;;;;;;;;;;;4996710;28;19925;-80
2022/05/19 08:42:41;;;;;;;;;;;;;;;;;;4996249;28;19921;-81
2022/05/19 08:45:14;;;;;;;;;;;;;;;;;;4996408;28;20386;-85
2022/05/19 08:47:40;;;;;;;;;;;;;;;;;;4996717;28;19972;-84
2022/05/19 08:50:11;;;;;;;;;;;;;;;;;;4979217;28;19926;-82
2022/05/19 08:52:43;;;;;;;;;;;;;;;;;;4996680;28;19918;-82
2022/05/19 08:55:11;;;;;;;;;;;;;;;;;;4996695;28;19977;-82
2022/05/19 08:57:40;;;;;;;;;;;;;;;;;;4996781;28;20374;-82
2022/05/19 09:00:12;;;;;;;;;;;;;;;;;;4996393;28;19925;-88
2022/05/19 09:02:41;;;;;;;;;;;;;;;;;;4978590;28;19953;-85
2022/05/19 09:05:25;;;;;;;;;;;;;;;;;;4996480;28;19922;-84
2022/05/19 09:07:59;;;;;;;;;;;;;;;;;;4996396;28;19917;-82
2022/05/19 09:10:43;;;;;;;;;;;;;;;;;;4996583;28;19976;-81
2022/05/19 09:13:16;;;;;;;;;;;;;;;;;;4996369;28;20019;-83
2022/05/19 09:15:43;;;;;;;;;;;;;;;;;;4996378;28;19981;-82
2022/05/19 09:18:09;;;;;;;;;;;;;;;;;;4996145;28;19992;-83
2022/05/19 09:20:37;;;;;;;;;;;;;;;;;;4995932;28;20141;-85
2022/05/19 09:23:04;;;;;;;;;;;;;;;;;;4995926;28;20337;-84
2022/05/19 09:25:30;;;;;;;;;;;;;;;;;;4995958;28;19972;-84
2022/05/19 09:27:58;;;;;;;;;;;;;;;;;;4995891;28;19925;-85
2022/05/19 09:30:59;;;;;;;;;;;;;;;;;;4995986;28;19921;-85
2022/05/19 09:33:33;;;;;;;;;;;;;;;;;;4898082;29;20471;-83
2022/05/19 09:36:00;;;;;;;;;;;;;;;;;;4897867;29;19933;-84
2022/05/19 09:38:31;;;;;;;;;;;;;;;;;;4897985;29;19962;-80
2022/05/19 09:41:00;;;;;;;;;;;;;;;;;;4897582;29;19971;-83
2022/05/19 09:43:27;;;;;;;;;;;;;;;;;;4897561;29;19927;-83
2022/05/19 09:46:04;;;;;;;;;;;;;;;;;;4895931;29;21113;-83
2022/05/19 09:48:33;;;;;;;;;;;;;;;;;;4902373;29;19982;-80
2022/05/19 09:51:01;;;;;;;;;;;;;;;;;;4916004;29;19998;-82
2022/05/19 09:53:27;;;;;;;;;;;;;;;;;;4915956;29;19923;-83
2022/05/19 09:55:56;;;;;;;;;;;;;;;;;;4899923;29;20265;-82
2022/05/19 09:58:22;;;;;;;;;;;;;;;;;;4914433;29;19927;-81
2022/05/19 10:00:48;;;;;;;;;;;;;;;;;;4904398;29;19975;-78
2022/05/19 10:03:37;;;;;;;;;;;;;;;;;;4916048;29;20305;-81
2022/05/19 10:06:15;;;;;;;;;;;;;;;;;;4889692;29;20055;-80
2022/05/19 10:08:44;;;;;;;;;;;;;;;;;;5008813;28;19924;-79
2022/05/19 10:11:21;;;;;;;;;;;;;;;;;;4995306;28;19918;-80
2022/05/19 10:13:49;;;;;;;;;;;;;;;;;;4978002;28;20247;-81
2022/05/19 10:16:14;;;;;;;;;;;;;;;;;;4995082;28;20588;-82
2022/05/19 10:19:09;;;;;;;;;;;;;;;;;;4995028;28;19956;-80
2022/05/19 10:21:34;;;;;;;;;;;;;;;;;;4974110;28;19925;-81
2022/05/19 10:24:12;;;;;;;;;;;;;;;;;;4994888;28;19917;-81
2022/05/19 10:26:48;;;;;;;;;;;;;;;;;;4994388;28;19918;-82
2022/05/19 10:32:22;;;;;;;;;;;;;;;;;;5001959;28;19928;-81
2022/05/19 10:34:53;;;;;;;;;;;;;;;;;;5007224;28;19922;-81
2022/05/19 10:37:28;;;;;;;;;;;;;;;;;;4994663;28;20360;-83
2022/05/19 10:39:56;;;;;;;;;;;;;;;;;;4994638;28;19993;-83
2022/05/19 10:42:25;;;;;;;;;;;;;;;;;;4994199;28;20297;-81
2022/05/19 10:44:56;;;;;;;;;;;;;;;;;;4994485;28;19925;-81
2022/05/19 10:47:34;;;;;;;;;;;;;;;;;;4994046;28;19925;-82
2022/05/19 10:50:06;;;;;;;;;;;;;;;;;;4994392;28;19958;-82
2022/05/19 10:52:53;;;;;;;;;;;;;;;;;;4994420;28;19941;-82
2022/05/19 10:55:27;;;;;;;;;;;;;;;;;;4994304;28;19922;-84
2022/05/19 10:57:52;;;;;;;;;;;;;;;;;;4993927;28;19918;-82
2022/05/19 11:00:38;;;;;;;;;;;;;;;;;;4994442;28;20020;-85
2022/05/19 11:03:28;;;;;;;;;;;;;;;;;;4993999;28;19972;-77
2022/05/19 11:06:20;;;;;;;;;;;;;;;;;;4998679;28;19921;-87
2022/05/19 11:08:46;;;;;;;;;;;;;;;;;;4996016;28;19925;-82
2022/05/19 11:11:19;;;;;;;;;;;;;;;;;;5013614;28;19923;-78
2022/05/19 11:13:50;;;;;;;;;;;;;;;;;;5013702;28;19921;-81
2022/05/19 11:16:22;;;;;;;;;;;;;;;;;;5011979;28;19925;-80
2022/05/19 11:19:10;;;;;;;;;;;;;;;;;;5005947;28;19928;-82
2022/05/19 11:21:38;;;;;;;;;;;;;;;;;;5000112;28;20023;-81
2022/05/19 11:24:13;;;;;;;;;;;;;;;;;;5013208;28;19917;-80
2022/05/19 11:26:47;;;;;;;;;;;;;;;;;;5012787;28;19952;-82
2022/05/19 11:29:19;;;;;;;;;;;;;;;;;;4995791;28;20064;-84
2022/05/19 11:32:06;;;;;;;;;;;;;;;;;;5002158;28;19917;-79
2022/05/19 11:34:41;;;;;;;;;;;;;;;;;;4976132;28;20008;-85
2022/05/19 11:37:18;;;;;;;;;;;;;;;;;;4993615;28;19918;-81
2022/05/19 11:40:02;;;;;;;;;;;;;;;;;;5006834;28;19917;-83
2022/05/19 11:42:32;;;;;;;;;;;;;;;;;;5012848;28;19926;-82
2022/05/19 11:45:00;;;;;;;;;;;;;;;;;;5013024;28;19922;-82
2022/05/19 11:55:50;;;;;;;;;;;;;;;;;;5008967;28;20293;-82
2022/05/19 11:58:20;;;;;;;;;;;;;;;;;;4979756;28;19921;-82
2022/05/19 12:00:55;;;;;;;;;;;;;;;;;;5011696;28;19925;-81
2022/05/19 12:03:24;;;;;;;;;;;;;;;;;;5008759;28;19957;-82
2022/05/19 12:06:16;;;;;;;;;;;;;;;;;;5012282;28;19932;-78
2022/05/19 12:08:41;;;;;;;;;;;;;;;;;;5006175;28;20389;-83
2022/05/19 12:11:16;;;;;;;;;;;;;;;;;;5012296;28;20022;-79
2022/05/19 12:13:47;;;;;;;;;;;;;;;;;;5009931;28;19975;-79
2022/05/19 12:16:14;;;;;;;;;;;;;;;;;;5011168;28;19921;-82
2022/05/19 12:19:02;;;;;;;;;;;;;;;;;;4987845;28;19918;-80
2022/05/19 12:21:31;;;;;;;;;;;;;;;;;;4947557;28;19917;-82
2022/05/19 12:24:02;;;;;;;;;;;;;;;;;;5009289;28;19922;-82
2022/05/19 12:26:36;;;;;;;;;;;;;;;;;;5011468;28;20024;-83
2022/05/19 12:29:01;;;;;;;;;;;;;;;;;;5010410;28;19922;-85
2022/05/19 12:34:27;;;;;;;;;;;;;;;;;;5002650;28;20435;-84
2022/05/19 12:37:12;;;;;;;;;;;;;;;;;;5001281;28;19944;-85
2022/05/19 12:39:45;;;;;;;;;;;;;;;;;;4953808;28;20353;-84
2022/05/19 12:42:25;;;;;;;;;;;;;;;;;;5003099;28;19921;-85
2022/05/19 12:44:51;;;;;;;;;;;;;;;;;;5005738;28;20311;-81
2022/05/19 12:47:19;;;;;;;;;;;;;;;;;;5005210;28;19926;-82
2022/05/19 12:50:03;;;;;;;;;;;;;;;;;;5007359;28;19914;-82
2022/05/19 12:52:48;;;;;;;;;;;;;;;;;;5005941;28;19921;-83
2022/05/19 12:55:22;;;;;;;;;;;;;;;;;;5002985;28;19921;-82
2022/05/19 12:57:48;;;;;;;;;;;;;;;;;;5002951;28;20008;-82
2022/05/19 13:00:19;;;;;;;;;;;;;;;;;;4987101;28;19926;-82
2022/05/19 13:03:06;;;;;;;;;;;;;;;;;;5006051;28;19918;-83
2022/05/19 13:05:37;;;;;;;;;;;;;;;;;;5001278;28;19944;-83
2022/05/19 13:08:08;;;;;;;;;;;;;;;;;;4986451;28;19926;-83
2022/05/19 13:10:36;;;;;;;;;;;;;;;;;;4996151;28;19952;-84
2022/05/19 13:13:04;;;;;;;;;;;;;;;;;;5010278;28;19940;-82
2022/05/19 13:15:31;;;;;;;;;;;;;;;;;;5012385;28;20016;-83
2022/05/19 13:17:58;;;;;;;;;;;;;;;;;;5012374;28;19964;-84
2022/05/19 13:20:27;;;;;;;;;;;;;;;;;;5013606;28;19925;-81
2022/05/19 13:22:59;;;;;;;;;;;;;;;;;;5015533;28;19917;-83
2022/05/19 13:25:25;;;;;;;;;;;;;;;;;;4995206;28;19928;-86
2022/05/19 13:30:47;;;;;;;;;;;;;;;;;;5006709;28;20368;-83
2022/05/19 13:33:21;;;;;;;;;;;;;;;;;;5004456;28;19917;-84
2022/05/19 13:35:56;;;;;;;;;;;;;;;;;;5015478;28;20443;-83
2022/05/19 13:38:22;;;;;;;;;;;;;;;;;;4997910;28;19953;-82
2022/05/19 13:40:48;;;;;;;;;;;;;;;;;;5015245;28;19921;-82
2022/05/19 13:43:33;;;;;;;;;;;;;;;;;;5012793;28;19933;-85
2022/05/19 13:46:01;;;;;;;;;;;;;;;;;;5006573;28;19918;-83
2022/05/19 13:48:45;;;;;;;;;;;;;;;;;;4997497;28;19961;-83
2022/05/19 13:51:27;;;;;;;;;;;;;;;;;;5009849;28;19957;-83
2022/05/19 13:53:55;;;;;;;;;;;;;;;;;;5015218;28;19925;-83
2022/05/19 13:56:25;;;;;;;;;;;;;;;;;;5015059;28;19922;-80
2022/05/19 13:58:51;;;;;;;;;;;;;;;;;;5014986;28;20430;-81
2022/05/19 14:01:36;;;;;;;;;;;;;;;;;;5014895;28;20016;-80
2022/05/19 14:04:04;;;;;;;;;;;;;;;;;;4997325;28;19917;-80
2022/05/19 14:06:31;;;;;;;;;;;;;;;;;;5014762;28;19917;-80
2022/05/19 14:08:57;;;;;;;;;;;;;;;;;;5006687;28;19924;-81
2022/05/19 14:11:23;;;;;;;;;;;;;;;;;;4995043;28;20332;-81
2022/05/19 14:13:52;;;;;;;;;;;;;;;;;;4996998;28;19922;-84
2022/05/19 14:16:18;;;;;;;;;;;;;;;;;;5004382;28;20029;-82
2022/05/19 14:18:53;;;;;;;;;;;;;;;;;;4979764;28;20417;-81
2022/05/19 14:21:20;;;;;;;;;;;;;;;;;;4995006;28;19944;-81
2022/05/19 14:23:51;;;;;;;;;;;;;;;;;;4994882;28;19922;-80
2022/05/19 14:26:21;;;;;;;;;;;;;;;;;;4999558;28;19980;-81
2022/05/19 14:28:48;;;;;;;;;;;;;;;;;;5006328;28;19925;-85
2022/05/19 14:31:18;;;;;;;;;;;;;;;;;;5001982;28;19965;-82
2022/05/19 14:34:07;;;;;;;;;;;;;;;;;;4993648;28;19955;-82
2022/05/19 14:36:41;;;;;;;;;;;;;;;;;;5002814;28;20378;-82
2022/05/19 14:39:26;;;;;;;;;;;;;;;;;;5002063;28;19918;-83
2022/05/19 14:44:40;;;;;;;;;;;;;;;;;;5002950;28;19933;-82
2022/05/19 14:47:05;;;;;;;;;;;;;;;;;;5002569;28;20001;-82
2022/05/19 14:49:32;;;;;;;;;;;;;;;;;;5001676;28;19918;-83
2022/05/19 14:51:59;;;;;;;;;;;;;;;;;;5002624;28;19924;-83
2022/05/19 14:54:24;;;;;;;;;;;;;;;;;;5003991;28;19922;-83
2022/05/19 14:56:57;;;;;;;;;;;;;;;;;;5013142;28;20007;-83
2022/05/19 14:59:35;;;;;;;;;;;;;;;;;;5008674;28;20021;-84
2022/05/19 15:02:01;;;;;;;;;;;;;;;;;;4993023;28;19922;-83
2022/05/19 15:04:27;;;;;;;;;;;;;;;;;;5002980;28;19971;-83
2022/05/19 15:06:52;;;;;;;;;;;;;;;;;;5012280;28;19971;-84
2022/05/19 15:09:18;;;;;;;;;;;;;;;;;;5012766;28;20008;-84
2022/05/19 15:11:43;;;;;;;;;;;;;;;;;;5013590;28;20266;-84
2022/05/19 15:14:09;;;;;;;;;;;;;;;;;;5013460;28;19929;-84
2022/05/19 15:16:34;;;;;;;;;;;;;;;;;;5013587;28;20365;-84
2022/05/19 15:19:00;;;;;;;;;;;;;;;;;;5013451;28;20444;-84
2022/05/19 15:21:26;;;;;;;;;;;;;;;;;;5013104;28;19943;-84
2022/05/19 15:23:52;;;;;;;;;;;;;;;;;;5013415;28;20378;-85
2022/05/19 15:26:17;;;;;;;;;;;;;;;;;;5013235;28;19917;-85
2022/05/19 15:28:44;;;;;;;;;;;;;;;;;;5012841;28;20020;-85
2022/05/19 15:31:12;;;;;;;;;;;;;;;;;;5013401;28;19961;-84
2022/05/19 15:33:39;;;;;;;;;;;;;;;;;;5013198;28;19921;-84
2022/05/19 15:36:04;;;;;;;;;;;;;;;;;;4996166;28;19922;-83
2022/05/19 15:38:30;;;;;;;;;;;;;;;;;;4996609;28;19921;-88
2022/05/19 15:40:56;;;;;;;;;;;;;;;;;;5003581;28;19935;-84
2022/05/19 15:43:21;;;;;;;;;;;;;;;;;;5003478;28;19984;-83
2022/05/19 15:45:46;;;;;;;;;;;;;;;;;;5011728;28;19918;-83
2022/05/19 15:48:12;;;;;;;;;;;;;;;;;;5004631;28;19924;-83
2022/05/19 15:50:45;;;;;;;;;;;;;;;;;;4993426;28;19925;-83
2022/05/19 15:53:11;;;;;;;;;;;;;;;;;;4994270;28;19918;-84
2022/05/19 15:55:40;;;;;;;;;;;;;;;;;;4975762;28;19922;-84
2022/05/19 15:58:05;;;;;;;;;;;;;;;;;;4993373;28;19992;-84
2022/05/19 16:00:31;;;;;;;;;;;;;;;;;;4993293;28;20318;-82
2022/05/19 16:02:58;;;;;;;;;;;;;;;;;;4993398;28;19940;-86
2022/05/19 16:05:24;;;;;;;;;;;;;;;;;;4992846;28;20445;-85
2022/05/19 16:07:51;;;;;;;;;;;;;;;;;;4993565;28;20004;-83
2022/05/19 16:10:18;;;;;;;;;;;;;;;;;;4992848;28;20433;-88
2022/05/19 16:12:44;;;;;;;;;;;;;;;;;;4993337;28;19922;-87
2022/05/19 16:15:10;;;;;;;;;;;;;;;;;;4993248;28;20278;-87
2022/05/19 16:17:37;;;;;;;;;;;;;;;;;;4994326;28;20350;-84
2022/05/19 16:20:03;;;;;;;;;;;;;;;;;;5012748;28;20409;-86
2022/05/19 16:22:30;;;;;;;;;;;;;;;;;;5012712;28;19918;-88
2022/05/19 16:25:00;;;;;;;;;;;;;;;;;;5012511;28;19921;-78
2022/05/19 16:27:26;;;;;;;;;;;;;;;;;;5012473;28;19947;-76
2022/05/19 16:29:52;;;;;;;;;;;;;;;;;;5012130;28;19917;-86
2022/05/19 16:32:17;;;;;;;;;;;;;;;;;;5012188;28;19922;-84
2022/05/19 16:34:43;;;;;;;;;;;;;;;;;;5012521;28;20008;-83
2022/05/19 16:37:17;;;;;;;;;;;;;;;;;;5012703;28;19940;-83
2022/05/19 16:39:42;;;;;;;;;;;;;;;;;;5012813;28;19924;-79
2022/05/19 16:42:08;;;;;;;;;;;;;;;;;;5012330;28;19929;-83
2022/05/19 16:44:33;;;;;;;;;;;;;;;;;;5012382;28;19969;-81
2022/05/19 16:46:59;;;;;;;;;;;;;;;;;;4990863;28;19922;-82
2022/05/19 16:49:24;;;;;;;;;;;;;;;;;;4992537;28;20255;-81
2022/05/19 16:51:50;;;;;;;;;;;;;;;;;;5003503;28;19925;-83
2022/05/19 16:59:43;;;;;;;;;;;;;;;;;;5001651;28;20325;-76
2022/05/19 17:02:12;;;;;;;;;;;;;;;;;;5015995;28;19921;-80
2022/05/19 17:04:38;;;;;;;;;;;;;;;;;;5016250;28;19917;-84
2022/05/19 17:07:04;;;;;;;;;;;;;;;;;;5015841;28;19960;-82
2022/05/19 17:09:31;;;;;;;;;;;;;;;;;;5015491;28;20377;-82
2022/05/19 17:11:56;;;;;;;;;;;;;;;;;;5015888;28;19921;-84
2022/05/19 17:14:22;;;;;;;;;;;;;;;;;;5005540;28;19922;-83
2022/05/19 17:16:47;;;;;;;;;;;;;;;;;;5004059;28;19922;-83
2022/05/19 17:19:12;;;;;;;;;;;;;;;;;;5003734;28;19917;-84
2022/05/19 17:21:38;;;;;;;;;;;;;;;;;;5005389;28;19922;-81
2022/05/19 17:24:03;;;;;;;;;;;;;;;;;;5004142;28;20269;-81
2022/05/19 17:26:29;;;;;;;;;;;;;;;;;;5007297;28;19921;-81
2022/05/19 17:28:55;;;;;;;;;;;;;;;;;;5014796;28;19925;-82